createdAt,value
2019-05-05T00:01:00.276Z,97.07
2019-05-05T00:03:49.468Z,97.24
2019-05-05T00:06:19.913Z,97.46
2019-05-05T00:08:51.194Z,97.40
2019-05-05T00:11:32.662Z,97.32
2019-05-05T00:14:28.430Z,97.41
2019-05-05T00:17:19.854Z,97.31
2019-05-05T00:19:50.168Z,97.07
2019-05-05T00:22:20.323Z,97.17
2019-05-05T00:24:50.777Z,97.45
2019-05-05T00:27:20.974Z,97.12
2019-05-05T00:29:51.432Z,97.02
2019-05-05T00:32:21.682Z,96.83
2019-05-05T00:34:54.986Z,96.68
2019-05-05T00:37:25.684Z,96.61
2019-05-05T00:39:56.032Z,96.61
2019-05-05T00:42:26.293Z,96.56
2019-05-05T00:44:56.554Z,96.21
2019-05-05T00:47:46.634Z,96.98
2019-05-05T00:50:19.399Z,97.17
2019-05-05T00:52:49.509Z,97.32
2019-05-05T00:55:19.649Z,97.26
2019-05-05T00:57:49.917Z,97.29
2019-05-05T01:00:41.888Z,97.44
2019-05-05T01:03:15.289Z,97.53
2019-05-05T01:06:04.540Z,97.08
2019-05-05T01:08:35.496Z,96.59
2019-05-05T01:11:05.951Z,95.96
2019-05-05T01:13:36.091Z,95.40
2019-05-05T01:16:06.398Z,95.26
2019-05-05T01:18:36.909Z,95.02
2019-05-05T01:21:07.542Z,94.83
2019-05-05T01:23:37.809Z,94.82
2019-05-05T01:26:08.302Z,94.93
2019-05-05T01:28:38.969Z,94.97
2019-05-05T01:31:14.648Z,94.92
2019-05-05T01:34:19.618Z,94.94
2019-05-05T01:36:54.959Z,95.01
2019-05-05T01:39:32.044Z,94.52
2019-05-05T01:42:05.068Z,94.54
2019-05-05T01:44:35.485Z,94.48
2019-05-05T01:47:05.947Z,94.90
2019-05-05T01:49:36.118Z,94.61
2019-05-05T01:52:06.433Z,94.53
2019-05-05T01:54:36.620Z,94.69
2019-05-05T01:57:07.191Z,94.88
2019-05-05T01:59:38.172Z,94.86
2019-05-05T02:02:08.430Z,94.65
2019-05-05T02:04:39.008Z,94.70
2019-05-05T02:07:09.407Z,94.63
2019-05-05T02:09:39.629Z,94.56
2019-05-05T02:12:09.876Z,94.61
2019-05-05T02:14:40.049Z,94.55
2019-05-05T02:17:10.169Z,94.77
2019-05-05T02:19:40.305Z,95.01
2019-05-05T02:22:10.574Z,95.34
2019-05-05T02:24:40.864Z,95.48
2019-05-05T02:27:10.984Z,95.50
2019-05-05T02:29:54.877Z,96.21
2019-05-05T02:32:38.069Z,96.23
2019-05-05T02:35:11.775Z,96.16
2019-05-05T02:37:45.454Z,96.34
2019-05-05T02:40:16.078Z,96.25
2019-05-05T02:42:46.531Z,96.22
2019-05-05T02:45:37.131Z,96.29
2019-05-05T02:48:15.610Z,96.25
2019-05-05T02:51:01.707Z,96.46
2019-05-05T02:53:34.153Z,96.50
2019-05-05T02:56:06.665Z,96.64
2019-05-05T02:58:38.802Z,96.45
2019-05-05T03:01:26.545Z,96.40
2019-05-05T03:03:57.340Z,96.51
2019-05-05T03:06:27.533Z,96.36
2019-05-05T03:08:58.330Z,96.19
2019-05-05T03:11:30.797Z,96.16
2019-05-05T03:14:04.075Z,96.10
2019-05-05T03:16:37.644Z,95.88
2019-05-05T03:19:08.916Z,96.01
2019-05-05T03:21:40.238Z,95.70
2019-05-05T03:24:11.255Z,95.36
2019-05-05T03:26:41.688Z,94.97
2019-05-05T03:29:15.929Z,95.01
2019-05-05T03:31:46.186Z,94.95
2019-05-05T03:34:16.880Z,94.60
2019-05-05T03:36:47.224Z,94.82
2019-05-05T03:39:29.147Z,94.84
2019-05-05T03:42:16.605Z,95.10
2019-05-05T03:44:54.592Z,95.30
2019-05-05T03:47:25.857Z,95.36
2019-05-05T03:49:57.443Z,96.09
2019-05-05T03:52:29.260Z,96.06
2019-05-05T03:54:59.839Z,96.01
2019-05-05T03:57:29.991Z,95.83
2019-05-05T04:00:00.333Z,95.67
2019-05-05T04:02:41.492Z,95.65
2019-05-05T04:05:37.034Z,95.22
2019-05-05T04:08:07.503Z,94.89
2019-05-05T04:10:38.413Z,94.61
2019-05-05T04:13:08.910Z,94.05
2019-05-05T04:15:40.733Z,93.65
2019-05-05T04:18:19.152Z,93.00
2019-05-05T04:20:49.477Z,92.93
2019-05-05T04:23:19.674Z,91.54
2019-05-05T04:25:49.790Z,91.44
2019-05-05T04:28:19.913Z,90.75
2019-05-05T04:30:50.498Z,90.78
2019-05-05T04:33:21.141Z,90.73
2019-05-05T04:35:51.414Z,90.17
2019-05-05T04:38:21.815Z,89.28
2019-05-05T04:40:54.069Z,89.15
2019-05-05T04:43:24.612Z,88.11
2019-05-05T04:45:55.022Z,88.11
2019-05-05T04:48:35.103Z,87.56
2019-05-05T04:51:13.932Z,87.66
2019-05-05T04:54:03.833Z,87.86
2019-05-05T04:56:34.520Z,87.58
2019-05-05T04:59:05.168Z,88.02
2019-05-05T05:01:36.040Z,88.50
2019-05-05T05:04:34.665Z,88.07
2019-05-05T05:07:04.986Z,87.94
2019-05-05T05:09:35.264Z,87.68
2019-05-05T05:12:05.654Z,87.72
2019-05-05T05:14:35.918Z,88.33
2019-05-05T05:17:10.478Z,88.34
2019-05-05T05:19:40.915Z,88.35
2019-05-05T05:22:13.563Z,88.07
2019-05-05T05:24:44.665Z,87.57
2019-05-05T05:27:15.293Z,87.35
2019-05-05T05:29:45.543Z,87.17
2019-05-05T05:32:15.813Z,86.58
2019-05-05T05:34:46.045Z,86.55
2019-05-05T05:37:16.338Z,86.68
2019-05-05T05:40:08.573Z,86.32
2019-05-05T05:42:39.864Z,85.90
2019-05-05T05:45:34.258Z,85.39
2019-05-05T05:48:26.232Z,85.19
2019-05-05T05:51:01.748Z,85.62
2019-05-05T05:53:31.878Z,85.34
2019-05-05T05:56:04.215Z,85.62
2019-05-05T05:58:35.131Z,85.89
2019-05-05T06:01:06.371Z,85.39
2019-05-05T06:03:36.604Z,85.43
2019-05-05T06:06:06.730Z,84.75
2019-05-05T06:08:36.971Z,84.44
2019-05-05T06:11:07.144Z,84.53
2019-05-05T06:13:37.334Z,83.42
2019-05-05T06:16:07.474Z,82.71
2019-05-05T06:18:37.623Z,82.72
2019-05-05T06:21:07.884Z,81.82
2019-05-05T06:23:38.053Z,82.82
2019-05-05T06:26:08.276Z,82.43
2019-05-05T06:28:38.392Z,80.37
2019-05-05T06:31:08.573Z,80.06
2019-05-05T06:33:38.697Z,80.39
2019-05-05T06:36:09.006Z,79.84
2019-05-05T06:38:39.144Z,79.62
2019-05-05T06:41:17.674Z,79.44
2019-05-05T06:44:06.915Z,79.23
2019-05-05T06:46:55.316Z,77.73
2019-05-05T06:49:25.523Z,77.95
2019-05-05T06:51:56.163Z,77.94
2019-05-05T06:54:26.828Z,78.04
2019-05-05T06:56:57.104Z,77.98
2019-05-05T06:59:27.379Z,78.74
2019-05-05T07:01:57.809Z,78.61
2019-05-05T07:04:28.156Z,78.31
2019-05-05T07:06:58.723Z,79.29
2019-05-05T07:09:29.003Z,79.12
2019-05-05T07:11:59.304Z,78.63
2019-05-05T07:14:29.733Z,78.79
2019-05-05T07:17:00.039Z,79.41
2019-05-05T07:19:30.323Z,80.26
2019-05-05T07:22:00.587Z,78.48
2019-05-05T07:24:34.475Z,78.67
2019-05-05T07:27:04.989Z,79.42
2019-05-05T07:29:36.446Z,78.87
2019-05-05T07:32:06.826Z,78.84
2019-05-05T07:35:03.954Z,78.30
2019-05-05T07:37:34.389Z,78.64
2019-05-05T07:40:05.861Z,78.34
2019-05-05T07:42:36.702Z,77.91
2019-05-05T07:45:20.263Z,76.75
2019-05-05T07:47:43.653Z,77.05
2019-05-05T07:50:27.885Z,78.51
2019-05-05T07:52:46.565Z,79.03
2019-05-05T07:55:16.795Z,78.09
2019-05-05T07:57:47.036Z,76.89
2019-05-05T08:00:17.174Z,76.81
2019-05-05T08:02:47.922Z,75.38
2019-05-05T08:05:18.410Z,75.64
2019-05-05T08:07:49.103Z,74.17
2019-05-05T08:10:19.886Z,74.17
2019-05-05T08:12:50.303Z,72.97
2019-05-05T08:15:23.785Z,70.48
2019-05-05T08:18:13.818Z,68.41
2019-05-05T08:20:46.802Z,67.05
2019-05-05T08:23:32.790Z,64.03
2019-05-05T08:26:10.986Z,62.19
2019-05-05T08:29:04.640Z,62.85
2019-05-05T08:31:57.060Z,62.21
2019-05-05T08:34:27.781Z,61.38
2019-05-05T08:36:59.890Z,59.45
2019-05-05T08:39:30.521Z,59.72
2019-05-05T08:42:01.434Z,60.48
2019-05-05T08:44:34.128Z,61.28
2019-05-05T08:47:04.694Z,61.11
2019-05-05T08:49:35.595Z,61.94
2019-05-05T08:52:06.363Z,62.35
2019-05-05T08:54:36.888Z,60.39
2019-05-05T08:57:07.544Z,60.52
2019-05-05T08:59:38.076Z,59.29
2019-05-05T09:02:08.600Z,59.20
2019-05-05T09:04:39.502Z,59.75
2019-05-05T09:07:10.625Z,59.14
2019-05-05T09:09:41.025Z,58.53
2019-05-05T09:12:13.897Z,57.61
2019-05-05T09:14:44.939Z,58.00
2019-05-05T09:17:16.323Z,57.90
2019-05-05T09:19:46.804Z,56.60
2019-05-05T09:22:17.415Z,55.92
2019-05-05T09:25:07.087Z,53.93
2019-05-05T09:27:50.154Z,52.39
2019-05-05T09:30:34.560Z,47.48
2019-05-05T09:33:05.550Z,45.26
2019-05-05T09:35:36.169Z,44.35
2019-05-05T09:38:09.482Z,46.14
2019-05-05T09:40:43.805Z,47.39
2019-05-05T09:43:14.895Z,44.78
2019-05-05T09:45:45.839Z,42.89
2019-05-05T09:48:16.035Z,43.98
2019-05-05T09:50:47.091Z,43.32
2019-05-05T09:53:18.474Z,41.24
2019-05-05T09:55:48.823Z,40.63
2019-05-05T09:58:19.220Z,39.14
2019-05-05T10:00:49.621Z,37.48
2019-05-05T10:03:20.196Z,37.74
2019-05-05T10:05:50.416Z,37.91
2019-05-05T10:08:20.861Z,36.53
2019-05-05T10:10:51.201Z,37.22
2019-05-05T10:13:21.909Z,41.87
2019-05-05T10:15:54.781Z,43.02
2019-05-05T10:18:25.487Z,45.07
2019-05-05T10:20:56.474Z,45.40
2019-05-05T10:23:28.482Z,44.59
2019-05-05T10:26:04.357Z,41.41
2019-05-05T10:28:35.143Z,34.15
2019-05-05T10:31:05.808Z,31.64
2019-05-05T10:33:39.800Z,34.15
2019-05-05T10:36:10.194Z,36.74
2019-05-05T10:38:44.455Z,39.41
2019-05-05T10:41:14.971Z,41.78
2019-05-05T10:43:45.336Z,44.17
2019-05-05T10:46:15.865Z,47.03
2019-05-05T10:48:46.468Z,45.24
2019-05-05T10:51:16.671Z,40.22
2019-05-05T10:53:47.106Z,39.09
2019-05-05T10:56:17.769Z,42.30
2019-05-05T10:58:48.077Z,43.90
2019-05-05T11:01:18.505Z,44.57
2019-05-05T11:03:49.095Z,48.76
2019-05-05T11:06:20.812Z,49.86
2019-05-05T11:08:54.018Z,49.94
2019-05-05T11:11:24.526Z,49.86
2019-05-05T11:13:55.125Z,48.62
2019-05-05T11:16:25.541Z,48.73
2019-05-05T11:18:56.335Z,46.45
2019-05-05T11:21:26.748Z,44.58
2019-05-05T11:23:57.347Z,40.41
2019-05-05T11:26:27.830Z,39.32
2019-05-05T11:28:58.156Z,40.32
2019-05-05T11:31:28.428Z,40.25
2019-05-05T11:34:17.684Z,41.06
2019-05-05T11:37:16.480Z,41.58
2019-05-05T11:39:46.696Z,39.82
2019-05-05T11:42:17.205Z,38.58
2019-05-05T11:44:47.793Z,35.43
2019-05-05T11:47:18.199Z,36.81
2019-05-05T11:49:48.462Z,37.30
2019-05-05T11:52:18.779Z,37.93
2019-05-05T11:54:49.090Z,39.12
2019-05-05T11:57:19.455Z,39.97
2019-05-05T11:59:50.230Z,42.81
2019-05-05T12:02:20.441Z,44.77
2019-05-05T12:04:50.858Z,47.60
2019-05-05T12:07:23.619Z,49.51
2019-05-05T12:09:56.777Z,51.57
2019-05-05T12:12:27.103Z,52.31
2019-05-05T12:14:57.340Z,54.16
2019-05-05T12:17:37.262Z,54.41
2019-05-05T12:20:10.302Z,53.29
2019-05-05T12:22:41.169Z,54.31
2019-05-05T12:25:29.906Z,54.47
2019-05-05T12:28:04.924Z,55.13
2019-05-05T12:30:39.991Z,52.81
2019-05-05T12:33:10.850Z,52.67
2019-05-05T12:35:41.463Z,52.24
2019-05-05T12:38:12.259Z,49.22
2019-05-05T12:40:44.255Z,48.42
2019-05-05T12:43:15.524Z,46.63
2019-05-05T12:45:49.507Z,46.45
2019-05-05T12:48:25.571Z,42.26
2019-05-05T12:50:56.288Z,43.13
2019-05-05T12:53:27.931Z,41.98
2019-05-05T12:55:59.999Z,43.03
2019-05-05T12:58:30.455Z,43.47
2019-05-05T13:01:09.197Z,42.75
2019-05-05T13:03:39.893Z,42.69
2019-05-05T13:06:11.351Z,44.60
2019-05-05T13:08:41.962Z,42.15
2019-05-05T13:11:13.608Z,40.51
2019-05-05T13:13:44.194Z,37.66
2019-05-05T13:16:15.066Z,37.54
2019-05-05T13:18:45.729Z,37.90
2019-05-05T13:21:45.503Z,38.56
2019-05-05T13:24:35.105Z,36.85
2019-05-05T13:27:19.258Z,37.38
2019-05-05T13:29:44.726Z,36.31
2019-05-05T13:32:15.355Z,35.98
2019-05-05T13:34:46.124Z,34.77
2019-05-05T13:37:16.596Z,35.66
2019-05-05T13:39:47.444Z,34.88
2019-05-05T13:42:17.825Z,33.04
2019-05-05T13:44:52.303Z,32.90
2019-05-05T13:47:23.869Z,34.13
2019-05-05T13:49:57.730Z,35.80
2019-05-05T13:52:28.196Z,37.51
2019-05-05T13:54:58.493Z,37.90
2019-05-05T13:57:29.142Z,35.55
2019-05-05T13:59:59.853Z,34.89
2019-05-05T14:02:30.288Z,36.60
2019-05-05T14:05:01.008Z,35.42
2019-05-05T14:07:31.261Z,33.78
2019-05-05T14:10:03.793Z,32.32
2019-05-05T14:12:34.831Z,34.28
2019-05-05T14:15:06.584Z,33.54
2019-05-05T14:17:36.910Z,33.70
2019-05-05T14:20:11.884Z,34.54
2019-05-05T14:22:40.169Z,34.24
2019-05-05T14:25:35.700Z,35.04
2019-05-05T14:28:06.257Z,33.66
2019-05-05T14:31:04.443Z,33.50
2019-05-05T14:33:54.226Z,35.50
2019-05-05T14:36:33.514Z,36.46
2019-05-05T14:39:06.216Z,38.57
2019-05-05T14:41:38.550Z,38.22
2019-05-05T14:44:09.291Z,39.61
2019-05-05T14:46:39.927Z,37.93
2019-05-05T14:49:10.143Z,39.26
2019-05-05T14:51:40.454Z,39.37
2019-05-05T14:54:10.894Z,41.29
2019-05-05T14:56:41.586Z,39.80
2019-05-05T14:59:14.062Z,40.96
2019-05-05T15:01:44.721Z,41.53
2019-05-05T15:04:17.312Z,42.08
2019-05-05T15:07:01.250Z,43.44
2019-05-05T15:09:49.770Z,44.35
2019-05-05T15:12:40.332Z,43.77
2019-05-05T15:15:10.889Z,42.42
2019-05-05T15:17:41.383Z,42.82
2019-05-05T15:20:13.844Z,42.04
2019-05-05T15:22:43.933Z,42.01
2019-05-05T15:25:14.270Z,39.71
2019-05-05T15:27:45.100Z,39.18
2019-05-05T15:30:15.753Z,39.61
2019-05-05T15:32:46.229Z,39.14
2019-05-05T15:35:16.926Z,39.23
2019-05-05T15:37:47.329Z,40.05
2019-05-05T15:40:19.307Z,41.02
2019-05-05T15:42:49.812Z,41.70
2019-05-05T15:45:20.232Z,39.82
2019-05-05T15:47:51.046Z,41.90
2019-05-05T15:50:21.366Z,40.15
2019-05-05T15:52:51.786Z,40.61
2019-05-05T15:55:24.425Z,39.97
2019-05-05T15:57:54.881Z,39.58
2019-05-05T16:00:25.698Z,40.87
2019-05-05T16:02:57.073Z,41.11
2019-05-05T16:05:27.512Z,46.54
2019-05-05T16:07:58.273Z,46.97
2019-05-05T16:10:28.747Z,45.23
2019-05-05T16:12:59.795Z,43.90
2019-05-05T16:15:53.502Z,44.32
2019-05-05T16:18:48.096Z,43.25
2019-05-05T16:21:34.689Z,42.51
2019-05-05T16:24:10.746Z,42.94
2019-05-05T16:26:41.135Z,40.85
2019-05-05T16:29:11.734Z,41.30
2019-05-05T16:31:42.074Z,42.18
2019-05-05T16:34:14.142Z,40.23
2019-05-05T16:36:44.523Z,40.40
2019-05-05T16:39:16.414Z,40.39
2019-05-05T16:41:46.974Z,40.48
2019-05-05T16:44:17.448Z,40.12
2019-05-05T16:46:47.666Z,41.35
2019-05-05T16:49:19.442Z,42.38
2019-05-05T16:52:04.073Z,42.82
2019-05-05T16:54:39.411Z,42.78
2019-05-05T16:57:09.962Z,42.21
2019-05-05T16:59:40.472Z,44.21
2019-05-05T17:02:11.006Z,41.34
2019-05-05T17:04:43.256Z,41.91
2019-05-05T17:07:14.270Z,42.19
2019-05-05T17:09:44.838Z,40.06
2019-05-05T17:12:18.146Z,40.52
2019-05-05T17:14:59.982Z,40.39
2019-05-05T17:17:37.561Z,40.20
2019-05-05T17:20:13.904Z,40.01
2019-05-05T17:23:04.110Z,39.69
2019-05-05T17:25:35.127Z,40.00
2019-05-05T17:28:05.770Z,40.98
2019-05-05T17:30:36.133Z,40.36
2019-05-05T17:33:06.727Z,40.82
2019-05-05T17:35:37.141Z,41.23
2019-05-05T17:38:08.616Z,41.34
2019-05-05T17:40:57.996Z,42.26
2019-05-05T17:43:59.583Z,41.17
2019-05-05T17:46:35.469Z,41.71
2019-05-05T17:49:26.990Z,42.60
2019-05-05T17:52:09.893Z,43.71
2019-05-05T17:54:45.798Z,42.69
2019-05-05T17:57:16.404Z,42.70
2019-05-05T17:59:46.977Z,45.41
2019-05-05T18:02:17.857Z,44.65
2019-05-05T18:04:48.302Z,44.15
2019-05-05T18:07:39.938Z,45.21
2019-05-05T18:10:18.222Z,45.91
2019-05-05T18:13:07.512Z,46.67
2019-05-05T18:15:54.201Z,46.38
2019-05-05T18:18:24.507Z,47.58
2019-05-05T18:20:55.096Z,47.69
2019-05-05T18:23:25.703Z,48.99
2019-05-05T18:25:56.072Z,49.59
2019-05-05T18:28:26.488Z,49.80
2019-05-05T18:30:57.097Z,50.41
2019-05-05T18:33:27.617Z,54.11
2019-05-05T18:35:58.128Z,56.04
2019-05-05T18:38:28.841Z,57.77
2019-05-05T18:41:03.739Z,57.21
2019-05-05T18:43:41.171Z,56.37
2019-05-05T18:46:13.742Z,57.25
2019-05-05T18:48:44.197Z,58.49
2019-05-05T18:51:17.540Z,60.03
2019-05-05T18:53:48.089Z,59.58
2019-05-05T18:56:18.443Z,61.47
2019-05-05T18:58:48.854Z,61.01
2019-05-05T19:01:44.582Z,62.19
2019-05-05T19:04:29.815Z,63.55
2019-05-05T19:07:14.610Z,63.02
2019-05-05T19:09:54.013Z,64.35
2019-05-05T19:12:17.844Z,66.18
2019-05-05T19:14:49.162Z,66.55
2019-05-05T19:17:20.551Z,67.24
2019-05-05T19:19:55.067Z,67.86
2019-05-05T19:22:26.061Z,68.14
2019-05-05T19:24:58.197Z,69.41
2019-05-05T19:27:28.676Z,70.49
2019-05-05T19:29:59.199Z,70.50
2019-05-05T19:32:29.683Z,71.28
2019-05-05T19:35:00.338Z,72.39
2019-05-05T19:37:31.044Z,72.60
2019-05-05T19:40:04.319Z,74.04
2019-05-05T19:42:34.362Z,74.36
2019-05-05T19:45:05.088Z,74.56
2019-05-05T19:47:35.713Z,73.95
2019-05-05T19:50:24.427Z,74.22
2019-05-05T19:52:55.363Z,75.67
2019-05-05T19:55:26.152Z,77.57
2019-05-05T19:57:56.988Z,78.28
2019-05-05T20:00:27.577Z,77.64
2019-05-05T20:03:04.373Z,78.79
2019-05-05T20:05:30.884Z,78.95
2019-05-05T20:08:04.017Z,78.76
2019-05-05T20:10:34.168Z,78.92
2019-05-05T20:13:05.245Z,79.49
2019-05-05T20:15:44.145Z,79.27
2019-05-05T20:18:14.425Z,79.61
2019-05-05T20:20:45.110Z,81.07
2019-05-05T20:23:16.228Z,81.09
2019-05-05T20:25:46.803Z,80.97
2019-05-05T20:28:17.373Z,81.54
2019-05-05T20:30:47.983Z,81.67
2019-05-05T20:33:36.426Z,82.29
2019-05-05T20:36:16.769Z,82.67
2019-05-05T20:38:52.163Z,82.31
2019-05-05T20:41:24.867Z,82.04
2019-05-05T20:43:55.875Z,82.86
2019-05-05T20:46:26.253Z,83.09
2019-05-05T20:48:56.778Z,83.13
2019-05-05T20:51:27.059Z,82.91
2019-05-05T20:53:57.560Z,82.96
2019-05-05T20:56:28.313Z,84.33
2019-05-05T20:58:58.622Z,84.66
2019-05-05T21:01:29.118Z,84.22
2019-05-05T21:03:59.623Z,83.99
2019-05-05T21:06:30.114Z,83.96
2019-05-05T21:09:00.442Z,84.91
2019-05-05T21:11:32.635Z,84.83
2019-05-05T21:14:04.021Z,84.79
2019-05-05T21:16:34.523Z,84.46
2019-05-05T21:19:05.644Z,85.11
2019-05-05T21:21:37.618Z,84.87
2019-05-05T21:24:09.116Z,84.57
2019-05-05T21:26:55.511Z,84.59
2019-05-05T21:29:38.452Z,84.82
2019-05-05T21:31:58.315Z,85.60
2019-05-05T21:34:28.573Z,85.43
2019-05-05T21:36:58.901Z,85.52
2019-05-05T21:39:29.467Z,85.62
2019-05-05T21:42:00.159Z,85.47
2019-05-05T21:44:30.517Z,85.42
2019-05-05T21:47:00.824Z,85.50
2019-05-05T21:49:33.666Z,85.72
2019-05-05T21:52:25.923Z,86.00
2019-05-05T21:55:13.958Z,85.88
2019-05-05T21:58:15.632Z,85.96
2019-05-05T22:01:04.317Z,85.96
2019-05-05T22:03:37.293Z,86.17
2019-05-05T22:06:07.692Z,86.17
2019-05-05T22:08:38.126Z,86.22
2019-05-05T22:11:08.656Z,87.37
2019-05-05T22:13:38.925Z,87.64
2019-05-05T22:16:09.148Z,87.63
2019-05-05T22:18:39.512Z,87.65
2019-05-05T22:21:28.907Z,87.91
2019-05-05T22:24:35.679Z,88.25
2019-05-05T22:27:05.342Z,88.93
2019-05-05T22:29:35.688Z,89.82
2019-05-05T22:32:06.281Z,90.41
2019-05-05T22:34:36.918Z,90.25
2019-05-05T22:37:09.559Z,90.21
2019-05-05T22:39:39.353Z,90.14
2019-05-05T22:42:09.708Z,90.03
2019-05-05T22:44:39.971Z,90.09
2019-05-05T22:47:11.191Z,90.18
2019-05-05T22:49:41.392Z,90.00
2019-05-05T22:52:11.696Z,90.29
2019-05-05T22:54:41.894Z,90.15
2019-05-05T22:57:14.048Z,90.05
2019-05-05T22:59:44.645Z,90.42
2019-05-05T23:02:16.796Z,90.58
2019-05-05T23:04:56.836Z,90.69
2019-05-05T23:07:29.981Z,90.63
2019-05-05T23:10:00.408Z,90.51
2019-05-05T23:12:31.486Z,90.54
2019-05-05T23:15:03.841Z,90.83
2019-05-05T23:17:55.943Z,91.19
2019-05-05T23:21:02.246Z,91.39
2019-05-05T23:23:59.942Z,92.10
2019-05-05T23:26:35.677Z,92.10
2019-05-05T23:29:04.375Z,92.01
2019-05-05T23:31:34.527Z,92.09
2019-05-05T23:34:05.003Z,92.11
2019-05-05T23:36:35.425Z,92.07
2019-05-05T23:39:07.903Z,92.11
2019-05-05T23:41:38.176Z,92.28
2019-05-05T23:44:08.586Z,92.72
2019-05-05T23:46:38.736Z,92.94
2019-05-05T23:49:08.925Z,92.86
2019-05-05T23:51:39.113Z,92.88
2019-05-05T23:54:09.183Z,92.82
2019-05-05T23:56:39.415Z,92.70
2019-05-05T23:59:09.720Z,92.63
